createdAt,value
2023-01-20T00:00:11.980Z,-2.86
2023-01-20T00:01:16.593Z,-2.79
2023-01-20T00:02:19.910Z,-2.78
2023-01-20T00:03:22.349Z,-2.74
2023-01-20T00:04:25.675Z,-2.98
2023-01-20T00:05:27.724Z,-2.72
2023-01-20T00:06:29.748Z,-2.72
2023-01-20T00:07:32.030Z,-2.71
2023-01-20T00:08:34.510Z,-2.74
2023-01-20T00:09:36.477Z,-2.74
2023-01-20T00:10:38.470Z,-2.72
2023-01-20T00:11:42.894Z,-2.73
2023-01-20T00:12:45.726Z,-2.73
2023-01-20T00:13:48.671Z,-2.68
2023-01-20T00:14:50.986Z,-2.63
2023-01-20T00:15:52.635Z,-2.60
2023-01-20T00:16:58.141Z,-2.68
2023-01-20T00:18:00.288Z,-2.52
2023-01-20T00:19:02.852Z,-2.49
2023-01-20T00:20:06.336Z,-2.47
2023-01-20T00:21:14.048Z,-2.44
2023-01-20T00:22:16.074Z,-2.44
2023-01-20T00:23:17.817Z,-2.41
2023-01-20T00:24:19.820Z,-2.37
2023-01-20T00:25:22.200Z,-2.36
2023-01-20T00:26:25.644Z,-2.35
2023-01-20T00:27:28.111Z,-2.36
2023-01-20T00:28:30.873Z,-2.34
2023-01-20T00:29:33.213Z,-2.34
2023-01-20T00:30:36.142Z,-2.34
2023-01-20T00:31:39.405Z,-2.34
2023-01-20T00:32:44.975Z,-2.35
2023-01-20T00:33:48.564Z,-2.32
2023-01-20T00:34:51.639Z,-2.29
2023-01-20T00:35:53.623Z,-2.36
2023-01-20T00:36:57.390Z,-2.25
2023-01-20T00:37:59.462Z,-2.24
2023-01-20T00:39:03.494Z,-2.19
2023-01-20T00:40:08.031Z,-2.22
2023-01-20T00:41:10.805Z,-2.25
2023-01-20T00:42:13.147Z,-2.26
2023-01-20T00:43:14.896Z,-2.27
2023-01-20T00:44:16.888Z,-2.30
2023-01-20T00:45:18.563Z,-2.32
2023-01-20T00:46:20.559Z,-2.34
2023-01-20T00:47:22.475Z,-2.35
2023-01-20T00:48:25.655Z,-2.38
2023-01-20T00:49:29.314Z,-2.40
2023-01-20T00:50:31.279Z,-2.40
2023-01-20T00:51:36.365Z,-2.42
2023-01-20T00:52:38.659Z,-2.42
2023-01-20T00:53:41.487Z,-2.45
2023-01-20T00:54:48.647Z,-2.47
2023-01-20T00:55:50.626Z,-2.49
2023-01-20T00:56:52.914Z,-2.50
2023-01-20T00:57:55.904Z,-2.54
2023-01-20T00:59:01.076Z,-2.67
2023-01-20T01:00:04.755Z,-2.57
2023-01-20T01:01:06.716Z,-2.80
2023-01-20T01:02:08.707Z,-2.63
2023-01-20T01:03:17.712Z,-2.64
2023-01-20T01:04:22.153Z,-2.64
2023-01-20T01:05:27.074Z,-2.64
2023-01-20T01:06:28.967Z,-2.62
2023-01-20T01:07:30.912Z,-2.62
2023-01-20T01:08:35.112Z,-2.64
2023-01-20T01:09:37.100Z,-2.74
2023-01-20T01:10:41.509Z,-2.69
2023-01-20T01:11:43.404Z,-2.70
2023-01-20T01:12:46.209Z,-2.82
2023-01-20T01:13:48.501Z,-2.77
2023-01-20T01:14:51.566Z,-2.79
2023-01-20T01:15:53.629Z,-2.80
2023-01-20T01:16:57.489Z,-2.83
2023-01-20T01:18:00.347Z,-2.78
2023-01-20T01:19:02.342Z,-2.78
2023-01-20T01:20:07.453Z,-2.78
2023-01-20T01:21:13.915Z,-2.79
2023-01-20T01:22:16.592Z,-2.81
2023-01-20T01:23:19.973Z,-2.83
2023-01-20T01:24:24.455Z,-2.81
2023-01-20T01:25:33.186Z,-2.81
2023-01-20T01:26:37.396Z,-2.86
2023-01-20T01:27:39.603Z,-2.88
2023-01-20T01:28:41.320Z,-2.91
2023-01-20T01:29:44.682Z,-2.95
2023-01-20T01:30:46.499Z,-2.97
2023-01-20T01:31:48.415Z,-3.00
2023-01-20T01:32:50.445Z,-3.04
2023-01-20T01:33:53.417Z,-3.07
2023-01-20T01:34:55.701Z,-3.10
2023-01-20T01:35:59.596Z,-3.13
2023-01-20T01:37:02.320Z,-3.19
2023-01-20T01:38:04.058Z,-3.20
2023-01-20T01:39:05.857Z,-3.18
2023-01-20T01:40:08.686Z,-3.23
2023-01-20T01:41:13.640Z,-3.25
2023-01-20T01:42:19.249Z,-3.27
2023-01-20T01:43:30.322Z,-3.27
2023-01-20T01:44:32.616Z,-3.38
2023-01-20T01:45:34.663Z,-3.31
2023-01-20T01:46:37.499Z,-3.40
2023-01-20T01:47:53.432Z,-3.39
2023-01-20T01:48:58.951Z,-3.43
2023-01-20T01:50:02.205Z,-3.50
2023-01-20T01:51:19.818Z,-3.44
2023-01-20T01:52:22.177Z,-3.47
2023-01-20T01:53:27.396Z,-3.47
2023-01-20T01:54:42.256Z,-3.46
2023-01-20T01:55:48.610Z,-3.45
2023-01-20T01:56:52.092Z,-3.40
2023-01-20T01:57:55.252Z,-3.33
2023-01-20T01:59:00.469Z,-3.29
2023-01-20T02:00:04.954Z,-3.26
2023-01-20T02:01:08.622Z,-3.28
2023-01-20T02:02:10.930Z,-3.33
2023-01-20T02:03:13.608Z,-3.34
2023-01-20T02:04:18.225Z,-3.34
2023-01-20T02:05:20.796Z,-3.34
2023-01-20T02:06:26.198Z,-3.35
2023-01-20T02:07:29.461Z,-3.41
2023-01-20T02:08:31.276Z,-3.40
2023-01-20T02:09:33.354Z,-3.58
2023-01-20T02:10:35.193Z,-3.44
2023-01-20T02:11:41.676Z,-3.45
2023-01-20T02:12:49.635Z,-3.44
2023-01-20T02:13:51.385Z,-3.48
2023-01-20T02:14:57.304Z,-3.53
2023-01-20T02:16:18.668Z,-3.65
2023-01-20T02:17:33.540Z,-3.56
2023-01-20T02:18:35.456Z,-3.54
2023-01-20T02:20:04.612Z,-3.56
2023-01-20T02:21:27.403Z,-3.53
2023-01-20T02:22:56.308Z,-3.54
2023-01-20T02:24:31.835Z,-3.56
2023-01-20T02:26:02.705Z,-3.58
2023-01-20T02:27:59.900Z,-3.60
2023-01-20T02:29:45.206Z,-3.60
2023-01-20T02:31:14.578Z,-3.51
2023-01-20T02:32:37.453Z,-3.54
2023-01-20T02:34:03.517Z,-3.59
2023-01-20T02:35:12.334Z,-3.60
2023-01-20T02:36:32.558Z,-3.75
2023-01-20T02:37:57.091Z,-3.64
2023-01-20T02:39:34.223Z,-3.68
2023-01-20T02:41:08.902Z,-3.70
2023-01-20T02:42:16.211Z,-3.70
2023-01-20T02:43:38.581Z,-3.71
2023-01-20T02:44:58.705Z,-3.68
2023-01-20T02:46:11.831Z,-3.68
2023-01-20T02:47:28.321Z,-3.76
2023-01-20T02:48:44.699Z,-3.67
2023-01-20T02:49:59.448Z,-3.68
2023-01-20T02:51:10.307Z,-3.72
2023-01-20T02:52:15.685Z,-3.70
2023-01-20T02:53:19.829Z,-3.71
2023-01-20T02:54:28.918Z,-3.69
2023-01-20T02:55:46.046Z,-3.66
2023-01-20T02:56:51.195Z,-3.68
2023-01-20T02:58:01.502Z,-3.66
2023-01-20T02:59:11.145Z,-3.65
2023-01-20T03:00:20.691Z,-3.75
2023-01-20T03:01:32.019Z,-3.65
2023-01-20T03:02:36.991Z,-3.64
2023-01-20T03:03:42.931Z,-3.67
2023-01-20T03:04:51.904Z,-3.73
2023-01-20T03:06:00.977Z,-3.73
2023-01-20T03:07:06.300Z,-3.69
2023-01-20T03:08:13.362Z,-3.61
2023-01-20T03:09:20.222Z,-3.60
2023-01-20T03:10:25.410Z,-3.58
2023-01-20T03:11:30.934Z,-3.68
2023-01-20T03:12:42.525Z,-3.64
2023-01-20T03:13:53.875Z,-3.62
2023-01-20T03:14:55.653Z,-3.77
2023-01-20T03:16:03.627Z,-3.67
2023-01-20T03:17:05.549Z,-3.71
2023-01-20T03:18:09.392Z,-3.75
2023-01-20T03:19:12.057Z,-3.79
2023-01-20T03:20:14.347Z,-3.79
2023-01-20T03:21:16.303Z,-3.86
2023-01-20T03:22:18.503Z,-3.76
2023-01-20T03:23:20.435Z,-3.76
2023-01-20T03:24:23.996Z,-3.78
2023-01-20T03:25:27.862Z,-3.79
2023-01-20T03:26:31.184Z,-3.81
2023-01-20T03:27:33.749Z,-3.82
2023-01-20T03:28:35.473Z,-3.77
2023-01-20T03:29:37.412Z,-3.75
2023-01-20T03:30:39.583Z,-3.75
2023-01-20T03:32:03.294Z,-3.80
2023-01-20T03:33:05.479Z,-3.78
2023-01-20T03:34:12.746Z,-4.02
2023-01-20T03:35:17.090Z,-3.90
2023-01-20T03:36:21.915Z,-3.86
2023-01-20T03:37:23.895Z,-3.96
2023-01-20T03:38:25.740Z,-3.96
2023-01-20T03:39:28.338Z,-4.00
2023-01-20T03:40:34.813Z,-4.06
2023-01-20T03:41:55.375Z,-4.08
2023-01-20T03:43:47.646Z,-4.09
2023-01-20T03:45:16.927Z,-4.12
2023-01-20T03:46:29.778Z,-4.39
2023-01-20T03:47:31.552Z,-4.11
2023-01-20T03:48:42.476Z,-4.13
2023-01-20T03:50:21.237Z,-4.11
2023-01-20T03:51:33.578Z,-4.09
2023-01-20T03:52:59.312Z,-4.05
2023-01-20T03:54:09.696Z,-4.04
2023-01-20T03:55:16.624Z,-4.07
2023-01-20T03:56:34.267Z,-4.02
2023-01-20T03:58:06.978Z,-4.00
2023-01-20T03:59:12.281Z,-3.98
2023-01-20T04:00:16.982Z,-4.00
2023-01-20T04:01:23.270Z,-4.14
2023-01-20T04:02:28.161Z,-4.01
2023-01-20T04:03:34.588Z,-4.03
2023-01-20T04:04:45.628Z,-4.05
2023-01-20T04:05:50.401Z,-4.08
2023-01-20T04:06:56.299Z,-4.05
2023-01-20T04:08:02.076Z,-4.10
2023-01-20T04:09:11.380Z,-4.05
2023-01-20T04:10:16.500Z,-4.05
2023-01-20T04:11:20.481Z,-4.06
2023-01-20T04:12:23.984Z,-4.01
2023-01-20T04:13:26.025Z,-4.00
2023-01-20T04:14:28.616Z,-3.95
2023-01-20T04:15:37.295Z,-3.96
2023-01-20T04:16:39.376Z,-3.90
2023-01-20T04:17:41.593Z,-3.85
2023-01-20T04:18:47.374Z,-3.84
2023-01-20T04:19:52.057Z,-3.81
2023-01-20T04:21:01.889Z,-3.82
